createdAt,value
2018-09-03T00:00:58.373Z,0.00
2018-09-03T00:01:58.281Z,0.00
2018-09-03T00:02:58.165Z,0.00
2018-09-03T00:03:58.076Z,0.00
2018-09-03T00:04:58.091Z,0.00
2018-09-03T00:05:57.908Z,0.00
2018-09-03T00:06:57.801Z,0.00
2018-09-03T00:07:57.709Z,0.00
2018-09-03T00:08:57.615Z,0.00
2018-09-03T00:09:57.525Z,0.00
2018-09-03T00:10:57.454Z,0.00
2018-09-03T00:11:57.464Z,0.00
2018-09-03T00:12:57.252Z,0.00
2018-09-03T00:13:57.163Z,0.00
2018-09-03T00:14:57.072Z,0.00
2018-09-03T00:15:56.979Z,0.00
2018-09-03T00:16:56.905Z,0.00
2018-09-03T00:17:56.794Z,0.00
2018-09-03T00:18:56.813Z,0.00
2018-09-03T00:19:56.616Z,0.00
2018-09-03T00:20:56.537Z,0.00
2018-09-03T00:21:56.431Z,0.00
2018-09-03T00:22:56.345Z,0.00
2018-09-03T00:23:56.247Z,0.00
2018-09-03T00:24:56.153Z,0.00
2018-09-03T00:25:56.171Z,0.00
2018-09-03T00:26:55.988Z,0.00
2018-09-03T00:27:55.883Z,0.00
2018-09-03T00:28:55.788Z,0.00
2018-09-03T00:29:55.699Z,0.00
2018-09-03T00:30:55.609Z,0.00
2018-09-03T00:31:55.532Z,0.00
2018-09-03T00:32:55.536Z,0.00
2018-09-03T00:33:55.335Z,0.00
2018-09-03T00:34:55.242Z,0.00
2018-09-03T00:35:55.152Z,0.00
2018-09-03T00:36:55.075Z,0.00
2018-09-03T00:37:54.966Z,0.00
2018-09-03T00:38:54.879Z,0.00
2018-09-03T00:39:54.889Z,0.00
2018-09-03T00:40:54.693Z,0.00
2018-09-03T00:41:54.618Z,0.00
2018-09-03T00:42:54.511Z,0.00
2018-09-03T00:43:54.425Z,0.00
2018-09-03T00:44:54.330Z,0.00
2018-09-03T00:45:54.237Z,0.00
2018-09-03T00:46:54.268Z,0.00
2018-09-03T00:47:54.053Z,0.00
2018-09-03T00:48:53.964Z,0.00
2018-09-03T00:49:53.878Z,0.00
2018-09-03T00:50:53.782Z,0.00
2018-09-03T00:51:53.709Z,0.00
2018-09-03T00:52:53.731Z,0.00
2018-09-03T00:53:53.521Z,0.00
2018-09-03T00:54:53.415Z,0.00
2018-09-03T00:55:53.325Z,0.00
2018-09-03T00:56:53.252Z,0.00
2018-09-03T00:57:53.140Z,0.00
2018-09-03T00:58:53.055Z,0.00
2018-09-03T00:59:52.961Z,0.00
2018-09-03T01:00:52.867Z,0.00
2018-09-03T01:01:52.794Z,0.00
2018-09-03T01:02:52.688Z,0.00
2018-09-03T01:03:52.603Z,0.00
2018-09-03T01:04:52.502Z,0.00
2018-09-03T01:05:52.412Z,0.00
2018-09-03T01:06:52.339Z,0.00
2018-09-03T01:07:52.229Z,0.00
2018-09-03T01:08:52.141Z,0.00
2018-09-03T01:09:52.049Z,0.00
2018-09-03T01:10:51.953Z,0.00
2018-09-03T01:11:51.885Z,0.00
2018-09-03T01:12:51.776Z,0.00
2018-09-03T01:13:51.682Z,0.00
2018-09-03T01:14:51.592Z,0.00
2018-09-03T01:15:51.500Z,0.00
2018-09-03T01:16:51.424Z,0.00
2018-09-03T01:17:51.315Z,0.00
2018-09-03T01:18:51.224Z,0.00
2018-09-03T01:19:51.131Z,0.00
2018-09-03T01:20:51.042Z,0.00
2018-09-03T01:21:50.968Z,0.00
2018-09-03T01:22:50.860Z,0.00
2018-09-03T01:23:50.770Z,0.00
2018-09-03T01:24:50.677Z,0.00
2018-09-03T01:25:50.585Z,0.00
2018-09-03T01:26:50.509Z,0.00
2018-09-03T01:27:50.401Z,0.00
2018-09-03T01:28:50.309Z,0.00
2018-09-03T01:29:50.219Z,0.00
2018-09-03T01:30:50.126Z,0.00
2018-09-03T01:31:50.056Z,0.00
2018-09-03T01:32:49.951Z,0.00
2018-09-03T01:33:49.853Z,0.00
2018-09-03T01:34:49.764Z,0.00
2018-09-03T01:35:49.671Z,0.00
2018-09-03T01:36:49.592Z,0.00
2018-09-03T01:37:49.493Z,0.00
2018-09-03T01:38:49.395Z,0.00
2018-09-03T01:39:49.307Z,0.00
2018-09-03T01:40:49.211Z,0.00
2018-09-03T01:41:49.139Z,0.00
2018-09-03T01:42:49.029Z,0.00
2018-09-03T01:43:48.943Z,0.00
2018-09-03T01:44:48.846Z,0.00
2018-09-03T01:45:48.758Z,0.00
2018-09-03T01:46:48.681Z,0.00
2018-09-03T01:47:48.581Z,0.00
2018-09-03T01:48:48.483Z,0.00
2018-09-03T01:49:48.392Z,0.00
2018-09-03T01:50:48.302Z,0.00
2018-09-03T01:51:48.227Z,0.00
2018-09-03T01:52:48.119Z,0.00
2018-09-03T01:53:48.024Z,0.00
2018-09-03T01:54:47.934Z,0.00
2018-09-03T01:55:47.845Z,0.00
2018-09-03T01:56:47.767Z,0.00
2018-09-03T01:57:47.664Z,0.00
2018-09-03T01:58:47.567Z,0.00
2018-09-03T01:59:47.480Z,0.00
2018-09-03T02:00:47.383Z,0.00
2018-09-03T02:01:47.310Z,0.00
2018-09-03T02:02:47.205Z,0.00
2018-09-03T02:03:47.112Z,0.00
2018-09-03T02:04:47.020Z,0.00
2018-09-03T02:05:46.926Z,0.00
2018-09-03T02:06:46.838Z,0.00
2018-09-03T02:07:46.765Z,0.00
2018-09-03T02:08:46.652Z,0.00
2018-09-03T02:09:46.676Z,0.00
2018-09-03T02:10:46.472Z,0.00
2018-09-03T02:11:46.384Z,0.00
2018-09-03T02:12:46.304Z,0.00
2018-09-03T02:13:46.196Z,0.00
2018-09-03T02:14:46.105Z,0.00
2018-09-03T02:15:46.016Z,0.00
2018-09-03T02:16:45.924Z,0.00
2018-09-03T02:17:45.848Z,0.00
2018-09-03T02:18:45.741Z,0.00
2018-09-03T02:19:45.652Z,0.00
2018-09-03T02:20:45.560Z,0.00
2018-09-03T02:21:45.467Z,0.00
2018-09-03T02:22:45.396Z,0.00
2018-09-03T02:23:45.287Z,0.00
2018-09-03T02:24:45.188Z,0.00
2018-09-03T02:25:45.099Z,0.00
2018-09-03T02:26:45.014Z,0.00
2018-09-03T02:27:44.933Z,0.00
2018-09-03T02:28:44.828Z,0.00
2018-09-03T02:29:44.737Z,0.00
2018-09-03T02:30:44.751Z,0.00
2018-09-03T02:31:44.554Z,0.00
2018-09-03T02:32:44.476Z,0.00
2018-09-03T02:33:44.370Z,0.00
2018-09-03T02:34:44.279Z,0.00
2018-09-03T02:35:44.187Z,0.00
2018-09-03T02:36:44.096Z,0.00
2018-09-03T02:37:44.022Z,0.00
2018-09-03T02:38:43.913Z,0.00
2018-09-03T02:39:43.822Z,0.00
2018-09-03T02:40:43.783Z,0.00
2018-09-03T02:41:43.639Z,0.00
2018-09-03T02:42:43.564Z,0.00
2018-09-03T02:43:43.454Z,0.00
2018-09-03T02:44:43.473Z,0.00
2018-09-03T02:45:43.277Z,0.00
2018-09-03T02:46:43.185Z,0.00
2018-09-03T02:47:43.106Z,0.00
2018-09-03T02:48:42.998Z,0.00
2018-09-03T02:49:42.908Z,0.00
2018-09-03T02:50:42.819Z,0.00
2018-09-03T02:51:42.824Z,0.00
2018-09-03T02:52:42.648Z,0.00
2018-09-03T02:53:42.543Z,0.00
2018-09-03T02:54:42.451Z,0.00
2018-09-03T02:55:42.361Z,0.00
2018-09-03T02:56:42.273Z,0.00
2018-09-03T02:57:42.191Z,0.00
2018-09-03T02:58:42.193Z,0.00
2018-09-03T02:59:41.999Z,0.00
2018-09-03T03:00:41.900Z,0.00
2018-09-03T03:01:41.810Z,0.00
2018-09-03T03:02:41.736Z,0.00
2018-09-03T03:03:41.628Z,0.00
2018-09-03T03:04:41.541Z,0.00
2018-09-03T03:05:41.551Z,0.00
2018-09-03T03:06:41.355Z,0.00
2018-09-03T03:07:41.280Z,0.00
2018-09-03T03:08:41.170Z,0.00
2018-09-03T03:09:41.083Z,0.00
2018-09-03T03:10:40.989Z,0.00
2018-09-03T03:11:40.932Z,0.00
2018-09-03T03:12:40.927Z,0.00
2018-09-03T03:13:40.719Z,0.00
2018-09-03T03:14:40.626Z,0.00
2018-09-03T03:15:40.533Z,0.00
2018-09-03T03:16:40.441Z,0.00
2018-09-03T03:17:40.367Z,0.00
2018-09-03T03:18:40.257Z,0.00
2018-09-03T03:19:40.287Z,0.00
2018-09-03T03:20:40.075Z,0.00
2018-09-03T03:21:39.985Z,0.00
2018-09-03T03:22:39.912Z,0.00
2018-09-03T03:23:39.800Z,0.00
2018-09-03T03:24:39.713Z,0.00
2018-09-03T03:25:39.619Z,0.00
2018-09-03T03:26:39.633Z,0.00
2018-09-03T03:27:39.455Z,0.00
2018-09-03T03:28:39.346Z,0.00
2018-09-03T03:29:39.251Z,0.00
2018-09-03T03:30:39.169Z,0.00
2018-09-03T03:31:39.075Z,0.00
2018-09-03T03:32:38.995Z,0.00
2018-09-03T03:33:38.992Z,0.00
2018-09-03T03:34:38.795Z,0.00
2018-09-03T03:35:38.705Z,0.00
2018-09-03T03:36:38.617Z,0.00
2018-09-03T03:37:38.545Z,0.00
2018-09-03T03:38:38.437Z,0.00
2018-09-03T03:39:38.341Z,0.00
2018-09-03T03:40:38.250Z,0.00
2018-09-03T03:41:38.164Z,0.00
2018-09-03T03:42:38.084Z,0.00
2018-09-03T03:43:37.976Z,0.00
2018-09-03T03:44:37.886Z,0.00
2018-09-03T03:45:37.793Z,0.00
2018-09-03T03:46:37.704Z,0.00
2018-09-03T03:47:37.611Z,0.00
2018-09-03T03:48:37.631Z,0.00
2018-09-03T03:49:37.431Z,0.00
2018-09-03T03:50:37.333Z,0.00
2018-09-03T03:51:37.245Z,0.00
2018-09-03T03:52:37.179Z,0.00
2018-09-03T03:53:37.061Z,0.00
2018-09-03T03:54:36.970Z,0.00
2018-09-03T03:55:36.879Z,0.00
2018-09-03T03:56:36.787Z,0.00
2018-09-03T03:57:36.698Z,0.00
2018-09-03T03:58:36.622Z,0.00
2018-09-03T03:59:36.515Z,0.00
2018-09-03T04:00:36.420Z,0.00
2018-09-03T04:01:36.332Z,0.00
2018-09-03T04:02:36.238Z,0.00
2018-09-03T04:03:36.165Z,0.00
2018-09-03T04:04:36.055Z,4.00
2018-09-03T04:05:35.967Z,4.00
2018-09-03T04:06:35.873Z,4.00
2018-09-03T04:07:35.788Z,4.00
2018-09-03T04:08:35.707Z,4.00
2018-09-03T04:09:35.599Z,4.00
2018-09-03T04:10:35.511Z,4.00
2018-09-03T04:11:35.422Z,0.00
2018-09-03T04:12:35.332Z,4.00
2018-09-03T04:13:35.249Z,4.00
2018-09-03T04:14:35.147Z,0.00
2018-09-03T04:15:35.054Z,4.00
2018-09-03T04:16:34.961Z,8.00
2018-09-03T04:17:34.870Z,8.00
2018-09-03T04:18:34.800Z,12.00
2018-09-03T04:19:34.689Z,12.00
2018-09-03T04:20:34.594Z,8.00
2018-09-03T04:21:34.507Z,12.00
2018-09-03T04:22:34.415Z,8.00
2018-09-03T04:23:34.338Z,4.00
2018-09-03T04:24:34.232Z,4.00
2018-09-03T04:25:34.142Z,8.00
2018-09-03T04:26:34.054Z,12.00
2018-09-03T04:27:33.957Z,16.00
2018-09-03T04:28:33.940Z,20.00
2018-09-03T04:29:33.771Z,24.00
2018-09-03T04:30:33.681Z,28.00
2018-09-03T04:31:33.591Z,40.00
2018-09-03T04:32:33.499Z,40.00
2018-09-03T04:33:33.421Z,44.00
2018-09-03T04:34:33.312Z,44.00
2018-09-03T04:35:33.219Z,48.00
2018-09-03T04:36:33.128Z,52.00
2018-09-03T04:37:33.042Z,56.00
2018-09-03T04:38:32.965Z,56.00
2018-09-03T04:39:32.855Z,60.00
2018-09-03T04:40:32.768Z,76.00
2018-09-03T04:41:32.666Z,96.00
2018-09-03T04:42:32.576Z,104.00
2018-09-03T04:43:32.505Z,120.00
2018-09-03T04:44:32.388Z,140.00
2018-09-03T04:45:32.297Z,156.00
2018-09-03T04:46:32.209Z,172.00
2018-09-03T04:47:32.113Z,148.00
2018-09-03T04:48:32.050Z,136.00
2018-09-03T04:49:31.931Z,156.00
2018-09-03T04:50:31.836Z,188.00
2018-09-03T04:51:31.744Z,188.00
2018-09-03T04:52:31.651Z,144.00
2018-09-03T04:53:31.576Z,128.00
2018-09-03T04:54:31.491Z,124.00
2018-09-03T04:55:31.378Z,96.00
2018-09-03T04:56:31.384Z,76.00
2018-09-03T04:57:31.191Z,76.00
2018-09-03T04:58:31.118Z,84.00
2018-09-03T04:59:31.012Z,80.00
2018-09-03T05:00:30.915Z,76.00
2018-09-03T05:01:30.838Z,64.00
2018-09-03T05:02:30.731Z,64.00
2018-09-03T05:03:30.760Z,80.00
2018-09-03T05:04:30.550Z,108.00
2018-09-03T05:05:30.582Z,200.00
2018-09-03T05:06:30.365Z,308.00
2018-09-03T05:07:30.273Z,344.00
2018-09-03T05:08:30.195Z,352.00
2018-09-03T05:09:30.087Z,408.00
2018-09-03T05:10:30.103Z,528.00
2018-09-03T05:11:29.902Z,636.00
2018-09-03T05:12:29.815Z,696.00
2018-09-03T05:13:29.733Z,740.00
2018-09-03T05:14:29.624Z,776.00
2018-09-03T05:15:29.538Z,820.00
2018-09-03T05:16:29.442Z,832.00
2018-09-03T05:17:29.459Z,784.00
2018-09-03T05:18:29.276Z,848.00
2018-09-03T05:19:29.166Z,976.00
2018-09-03T05:20:29.072Z,1288.00
2018-09-03T05:21:28.991Z,1620.00
2018-09-03T05:22:28.892Z,1808.00
2018-09-03T05:23:28.813Z,1820.00
2018-09-03T05:24:28.812Z,1912.00
2018-09-03T05:25:28.612Z,2100.00
2018-09-03T05:26:28.520Z,2116.00
2018-09-03T05:27:28.433Z,2200.00
2018-09-03T05:28:28.356Z,2556.00
2018-09-03T05:29:28.244Z,2616.00
2018-09-03T05:30:28.151Z,2472.00
2018-09-03T05:31:28.167Z,2600.00
2018-09-03T05:32:27.968Z,2448.00
2018-09-03T05:33:27.895Z,2352.00
2018-09-03T05:34:27.783Z,2132.00
2018-09-03T05:35:27.690Z,2176.00
2018-09-03T05:36:27.602Z,2356.00
2018-09-03T05:37:27.507Z,2420.00
2018-09-03T05:38:27.519Z,2232.00
2018-09-03T05:39:27.341Z,2004.00
2018-09-03T05:40:27.231Z,2028.00
2018-09-03T05:41:27.139Z,1800.00
2018-09-03T05:42:27.047Z,1388.00
2018-09-03T05:43:27.061Z,1296.00
2018-09-03T05:44:26.881Z,1356.00
2018-09-03T05:45:26.773Z,1508.00
2018-09-03T05:46:26.680Z,1908.00
2018-09-03T05:47:26.587Z,1880.00
2018-09-03T05:48:26.495Z,1736.00
2018-09-03T05:49:26.421Z,1536.00
2018-09-03T05:50:26.412Z,1660.00
2018-09-03T05:51:26.221Z,1920.00
2018-09-03T05:52:26.127Z,1788.00
2018-09-03T05:53:26.046Z,1704.00
2018-09-03T05:54:25.961Z,1888.00
2018-09-03T05:55:25.856Z,2016.00
2018-09-03T05:56:25.760Z,1988.00
2018-09-03T05:57:25.667Z,1996.00
2018-09-03T05:58:25.577Z,2116.00
2018-09-03T05:59:25.501Z,2116.00
2018-09-03T06:00:25.536Z,2108.00
2018-09-03T06:01:25.300Z,2076.00
2018-09-03T06:02:25.212Z,2108.00
2018-09-03T06:03:25.118Z,2336.00
2018-09-03T06:04:25.043Z,2668.00
2018-09-03T06:05:24.937Z,3212.00
2018-09-03T06:06:24.840Z,3528.00
2018-09-03T06:07:24.747Z,3764.00
2018-09-03T06:08:24.657Z,4064.00
2018-09-03T06:09:24.581Z,4160.00
2018-09-03T06:10:24.502Z,4176.00
2018-09-03T06:11:24.381Z,4052.00
2018-09-03T06:12:24.289Z,4132.00
2018-09-03T06:13:24.214Z,4276.00
2018-09-03T06:14:24.120Z,4192.00
2018-09-03T06:15:24.013Z,3924.00
2018-09-03T06:16:23.921Z,3812.00
2018-09-03T06:17:23.835Z,3660.00
2018-09-03T06:18:23.744Z,3372.00
2018-09-03T06:19:23.664Z,3136.00
2018-09-03T06:20:23.555Z,2688.00
2018-09-03T06:21:23.463Z,2856.00
2018-09-03T06:22:23.373Z,3448.00
2018-09-03T06:23:23.295Z,3324.00
2018-09-03T06:24:23.206Z,3344.00
2018-09-03T06:25:23.098Z,3776.00
2018-09-03T06:26:23.005Z,3812.00
2018-09-03T06:27:22.960Z,3976.00
2018-09-03T06:28:22.826Z,4116.00
2018-09-03T06:29:22.748Z,4140.00
2018-09-03T06:30:22.641Z,4124.00
2018-09-03T06:31:22.549Z,4120.00
2018-09-03T06:32:22.455Z,4108.00
2018-09-03T06:33:22.374Z,3880.00
2018-09-03T06:34:22.291Z,3924.00
2018-09-03T06:35:22.185Z,3756.00
2018-09-03T06:36:22.090Z,3716.00
2018-09-03T06:37:21.999Z,3584.00
2018-09-03T06:38:21.908Z,3432.00
2018-09-03T06:39:21.836Z,3412.00
2018-09-03T06:40:21.730Z,3176.00
2018-09-03T06:41:21.633Z,3368.00
2018-09-03T06:42:21.542Z,3320.00
2018-09-03T06:43:21.452Z,2956.00
2018-09-03T06:44:21.378Z,2900.00
2018-09-03T06:45:21.267Z,3024.00
2018-09-03T06:46:21.182Z,2896.00
2018-09-03T06:47:21.087Z,2784.00
2018-09-03T06:48:20.997Z,2532.00
2018-09-03T06:49:20.925Z,2392.00
2018-09-03T06:50:20.812Z,2296.00
2018-09-03T06:51:20.723Z,2340.00
2018-09-03T06:52:20.637Z,2380.00
2018-09-03T06:53:20.589Z,2576.00
2018-09-03T06:54:20.466Z,2648.00
2018-09-03T06:55:20.352Z,2648.00
2018-09-03T06:56:20.265Z,2500.00
2018-09-03T06:57:20.178Z,2420.00
2018-09-03T06:58:20.136Z,2480.00
2018-09-03T06:59:20.006Z,2496.00
2018-09-03T07:00:19.898Z,2352.00
2018-09-03T07:01:19.807Z,2228.00
2018-09-03T07:02:19.729Z,2188.00
2018-09-03T07:03:19.630Z,2228.00
2018-09-03T07:04:19.552Z,2336.00
2018-09-03T07:05:19.443Z,2424.00
2018-09-03T07:06:19.351Z,2468.00
2018-09-03T07:07:19.265Z,2544.00
2018-09-03T07:08:19.172Z,2712.00
2018-09-03T07:09:19.203Z,2796.00
2018-09-03T07:10:18.993Z,2764.00
2018-09-03T07:11:18.897Z,2840.00
2018-09-03T07:12:18.808Z,2864.00
2018-09-03T07:13:18.716Z,2916.00
2018-09-03T07:14:18.637Z,3252.00
2018-09-03T07:15:18.535Z,3932.00
2018-09-03T07:16:18.556Z,4396.00
2018-09-03T07:17:18.347Z,4716.00
2018-09-03T07:18:18.260Z,5200.00
2018-09-03T07:19:18.185Z,5572.00
2018-09-03T07:20:18.076Z,5764.00
2018-09-03T07:21:17.985Z,6336.00
2018-09-03T07:22:17.897Z,6392.00
2018-09-03T07:23:17.801Z,6368.00
2018-09-03T07:24:17.729Z,6568.00
2018-09-03T07:25:17.621Z,6748.00
2018-09-03T07:26:17.546Z,7280.00
2018-09-03T07:27:17.440Z,7472.00
2018-09-03T07:28:17.347Z,7404.00
2018-09-03T07:29:17.256Z,7056.00
2018-09-03T07:30:17.284Z,6564.00
2018-09-03T07:31:17.078Z,6332.00
2018-09-03T07:32:16.982Z,5996.00
2018-09-03T07:33:16.895Z,5700.00
2018-09-03T07:34:16.806Z,5400.00
2018-09-03T07:35:16.727Z,4896.00
2018-09-03T07:36:16.622Z,4448.00
2018-09-03T07:37:16.630Z,4212.00
2018-09-03T07:38:16.443Z,4180.00
2018-09-03T07:39:16.349Z,4100.00
2018-09-03T07:40:16.276Z,4076.00
2018-09-03T07:41:16.168Z,4268.00
2018-09-03T07:42:16.078Z,4240.00
2018-09-03T07:43:15.986Z,4344.00
2018-09-03T07:44:16.028Z,4996.00
2018-09-03T07:45:15.817Z,5944.00
2018-09-03T07:46:15.713Z,6848.00
2018-09-03T07:47:15.624Z,7396.00
2018-09-03T07:48:15.531Z,7692.00
2018-09-03T07:49:15.453Z,8012.00
2018-09-03T07:50:15.365Z,8556.00
2018-09-03T07:51:15.359Z,8828.00
2018-09-03T07:52:15.167Z,8776.00
2018-09-03T07:53:15.077Z,8524.00
2018-09-03T07:54:14.986Z,8776.00
2018-09-03T07:55:14.912Z,9172.00
2018-09-03T07:56:14.852Z,9664.00
2018-09-03T07:57:14.714Z,9632.00
2018-09-03T07:58:14.740Z,9272.00
2018-09-03T07:59:14.538Z,8876.00
2018-09-03T08:00:14.458Z,8928.00
2018-09-03T08:01:14.424Z,9324.00
2018-09-03T08:02:14.265Z,9416.00
2018-09-03T08:03:14.174Z,9244.00
2018-09-03T08:04:14.078Z,9384.00
2018-09-03T08:05:14.109Z,10068.00
2018-09-03T08:06:13.900Z,10236.00
2018-09-03T08:07:13.811Z,10232.00
2018-09-03T08:08:13.724Z,9984.00
2018-09-03T08:09:13.629Z,10256.00
2018-09-03T08:10:13.558Z,9392.00
2018-09-03T08:11:13.455Z,8372.00
2018-09-03T08:12:13.457Z,7928.00
2018-09-03T08:13:13.271Z,8608.00
2018-09-03T08:14:13.178Z,8996.00
2018-09-03T08:15:13.104Z,7608.00
2018-09-03T08:16:12.996Z,6520.00
2018-09-03T08:17:12.909Z,5384.00
2018-09-03T08:18:12.819Z,6064.00
2018-09-03T08:19:12.841Z,6432.00
2018-09-03T08:20:12.652Z,7148.00
2018-09-03T08:21:12.546Z,7784.00
2018-09-03T08:22:12.458Z,7696.00
2018-09-03T08:23:12.370Z,8112.00
2018-09-03T08:24:12.283Z,8816.00
2018-09-03T08:25:12.202Z,9488.00
2018-09-03T08:26:12.098Z,9848.00
2018-09-03T08:27:12.017Z,10164.00
2018-09-03T08:28:11.920Z,10764.00
2018-09-03T08:29:11.826Z,11964.00
2018-09-03T08:30:11.795Z,13552.00
2018-09-03T08:31:11.649Z,13712.00
2018-09-03T08:32:11.557Z,13604.00
2018-09-03T08:33:11.468Z,13224.00
2018-09-03T08:34:11.381Z,12752.00
2018-09-03T08:35:11.302Z,13560.00
2018-09-03T08:36:11.200Z,15532.00
2018-09-03T08:37:11.115Z,16624.00
2018-09-03T08:38:11.065Z,17856.00
2018-09-03T08:39:10.929Z,19296.00
2018-09-03T08:40:10.856Z,21056.00
2018-09-03T08:41:10.752Z,21664.00
2018-09-03T08:42:10.658Z,21952.00
2018-09-03T08:43:10.568Z,22144.00
2018-09-03T08:44:10.479Z,20160.00
2018-09-03T08:45:10.408Z,17304.00
2018-09-03T08:46:10.299Z,14780.00
2018-09-03T08:47:10.212Z,13152.00
2018-09-03T08:48:10.124Z,11796.00
2018-09-03T08:49:10.033Z,10924.00
2018-09-03T08:50:09.956Z,10212.00
2018-09-03T08:51:09.850Z,9944.00
2018-09-03T08:52:09.762Z,10112.00
2018-09-03T08:53:09.674Z,10480.00
2018-09-03T08:54:09.583Z,11140.00
2018-09-03T08:55:09.511Z,12364.00
2018-09-03T08:56:09.403Z,12768.00
2018-09-03T08:57:09.318Z,12980.00
2018-09-03T08:58:09.225Z,12580.00
2018-09-03T08:59:09.137Z,12148.00
2018-09-03T09:00:09.063Z,11472.00
2018-09-03T09:01:08.956Z,10356.00
2018-09-03T09:02:08.868Z,9644.00
2018-09-03T09:03:08.780Z,9684.00
2018-09-03T09:04:08.689Z,9384.00
2018-09-03T09:05:08.615Z,9196.00
2018-09-03T09:06:08.506Z,9264.00
2018-09-03T09:07:08.416Z,9004.00
2018-09-03T09:08:08.330Z,8700.00
2018-09-03T09:09:08.245Z,7844.00
2018-09-03T09:10:08.153Z,6944.00
2018-09-03T09:11:08.089Z,6792.00
2018-09-03T09:12:07.972Z,6900.00
2018-09-03T09:13:07.882Z,6796.00
2018-09-03T09:14:07.792Z,6712.00
2018-09-03T09:15:07.723Z,6376.00
2018-09-03T09:16:07.613Z,5852.00
2018-09-03T09:17:07.523Z,5548.00
2018-09-03T09:18:07.433Z,5756.00
2018-09-03T09:19:07.344Z,6088.00
2018-09-03T09:20:07.258Z,6140.00
2018-09-03T09:21:07.182Z,6308.00
2018-09-03T09:22:07.079Z,6700.00
2018-09-03T09:23:06.985Z,7128.00
2018-09-03T09:24:06.895Z,7736.00
2018-09-03T09:25:06.863Z,8328.00
2018-09-03T09:26:06.731Z,8740.00
2018-09-03T09:27:06.624Z,8880.00
2018-09-03T09:28:06.541Z,9048.00
2018-09-03T09:29:06.445Z,9232.00
2018-09-03T09:30:06.360Z,10208.00
2018-09-03T09:31:06.289Z,10636.00
2018-09-03T09:32:06.192Z,10228.00
2018-09-03T09:33:06.125Z,10304.00
2018-09-03T09:34:05.996Z,9804.00
2018-09-03T09:35:05.912Z,12112.00
2018-09-03T09:36:05.835Z,12920.00
2018-09-03T09:37:05.729Z,12640.00
2018-09-03T09:38:05.638Z,11304.00
2018-09-03T09:39:05.545Z,11340.00
2018-09-03T09:40:05.460Z,12304.00
2018-09-03T09:41:05.383Z,11732.00
2018-09-03T09:42:05.399Z,11356.00
2018-09-03T09:43:05.231Z,11644.00
2018-09-03T09:44:05.098Z,12400.00
2018-09-03T09:45:05.008Z,12392.00
2018-09-03T09:46:04.933Z,12640.00
2018-09-03T09:47:04.827Z,13000.00
2018-09-03T09:48:04.737Z,12740.00
2018-09-03T09:49:04.750Z,13060.00
2018-09-03T09:50:04.560Z,13528.00
2018-09-03T09:51:04.485Z,13612.00
2018-09-03T09:52:04.380Z,13520.00
2018-09-03T09:53:04.292Z,13804.00
2018-09-03T09:54:04.202Z,14264.00
2018-09-03T09:55:04.108Z,13936.00
2018-09-03T09:56:04.134Z,13436.00
2018-09-03T09:57:03.928Z,13500.00
2018-09-03T09:58:03.841Z,12432.00
2018-09-03T09:59:03.750Z,12556.00
2018-09-03T10:00:03.661Z,11904.00
2018-09-03T10:01:03.584Z,11820.00
2018-09-03T10:02:03.478Z,11276.00
2018-09-03T10:03:03.488Z,10992.00
2018-09-03T10:04:03.303Z,11656.00
2018-09-03T10:05:03.210Z,11524.00
2018-09-03T10:06:03.136Z,11636.00
2018-09-03T10:07:03.031Z,12064.00
2018-09-03T10:08:02.943Z,12060.00
2018-09-03T10:09:02.849Z,11412.00
2018-09-03T10:10:02.860Z,11332.00
2018-09-03T10:11:02.687Z,11432.00
2018-09-03T10:12:02.585Z,12048.00
2018-09-03T10:13:02.493Z,11748.00
2018-09-03T10:14:02.417Z,13064.00
2018-09-03T10:15:02.313Z,14148.00
2018-09-03T10:16:02.239Z,14588.00
2018-09-03T10:17:02.246Z,14292.00
2018-09-03T10:18:02.044Z,13548.00
2018-09-03T10:19:01.953Z,12676.00
2018-09-03T10:20:01.862Z,12024.00
2018-09-03T10:21:01.863Z,12428.00
2018-09-03T10:22:01.687Z,11676.00
2018-09-03T10:23:01.649Z,10460.00
2018-09-03T10:24:01.604Z,9792.00
2018-09-03T10:25:01.415Z,8652.00
2018-09-03T10:26:01.343Z,8528.00
2018-09-03T10:27:01.236Z,8840.00
2018-09-03T10:28:01.155Z,10908.00
2018-09-03T10:29:01.060Z,10896.00
2018-09-03T10:30:00.968Z,9260.00
2018-09-03T10:31:00.997Z,9952.00
2018-09-03T10:32:00.835Z,12216.00
2018-09-03T10:33:00.697Z,13308.00
2018-09-03T10:34:00.611Z,12132.00
2018-09-03T10:35:00.527Z,10704.00
2018-09-03T10:36:00.453Z,10840.00
2018-09-03T10:37:00.339Z,10832.00
2018-09-03T10:38:00.353Z,10724.00
2018-09-03T10:39:00.162Z,11556.00
2018-09-03T10:40:00.078Z,10496.00
2018-09-03T10:40:59.996Z,11568.00
2018-09-03T10:41:59.893Z,10256.00
2018-09-03T10:42:59.806Z,10952.00
2018-09-03T10:43:59.711Z,10884.00
2018-09-03T10:44:59.727Z,11732.00
2018-09-03T10:45:59.546Z,10744.00
2018-09-03T10:46:59.574Z,11192.00
2018-09-03T10:47:59.352Z,10136.00
2018-09-03T10:48:59.260Z,10024.00
2018-09-03T10:49:59.174Z,9952.00
2018-09-03T10:50:59.098Z,11088.00
2018-09-03T10:51:58.991Z,12080.00
2018-09-03T10:52:58.899Z,11648.00
2018-09-03T10:53:58.813Z,10204.00
2018-09-03T10:54:58.722Z,11112.00
2018-09-03T10:55:58.636Z,9836.00
2018-09-03T10:56:58.558Z,10588.00
2018-09-03T10:57:58.451Z,11096.00
2018-09-03T10:58:58.362Z,9940.00
2018-09-03T10:59:58.271Z,10280.00
2018-09-03T11:00:58.204Z,11976.00
2018-09-03T11:01:58.093Z,13468.00
2018-09-03T11:02:58.005Z,12664.00
2018-09-03T11:03:57.912Z,12428.00
2018-09-03T11:04:57.823Z,10016.00
2018-09-03T11:05:57.735Z,10096.00
2018-09-03T11:06:57.661Z,8620.00
2018-09-03T11:07:57.555Z,8860.00
2018-09-03T11:08:57.470Z,10276.00
2018-09-03T11:09:57.375Z,9228.00
2018-09-03T11:10:57.285Z,8968.00
2018-09-03T11:11:57.210Z,9896.00
2018-09-03T11:12:57.111Z,9884.00
2018-09-03T11:13:57.018Z,10348.00
2018-09-03T11:14:56.926Z,11652.00
2018-09-03T11:15:56.837Z,12512.00
2018-09-03T11:16:56.768Z,15160.00
2018-09-03T11:17:56.656Z,16476.00
2018-09-03T11:18:56.570Z,16072.00
2018-09-03T11:19:56.488Z,14640.00
2018-09-03T11:20:56.405Z,14420.00
2018-09-03T11:21:56.315Z,16120.00
2018-09-03T11:22:56.208Z,16752.00
2018-09-03T11:23:56.131Z,18176.00
2018-09-03T11:24:56.029Z,18240.00
2018-09-03T11:25:55.939Z,18080.00
2018-09-03T11:26:55.909Z,16764.00
2018-09-03T11:27:55.760Z,17760.00
2018-09-03T11:28:55.678Z,20768.00
2018-09-03T11:29:55.583Z,19872.00
2018-09-03T11:30:55.493Z,23552.00
2018-09-03T11:31:55.422Z,23936.00
2018-09-03T11:32:55.319Z,21568.00
2018-09-03T11:33:55.225Z,19168.00
2018-09-03T11:34:55.178Z,19552.00
2018-09-03T11:35:55.047Z,16660.00
2018-09-03T11:36:54.977Z,16012.00
2018-09-03T11:37:54.873Z,14052.00
2018-09-03T11:38:54.781Z,13732.00
2018-09-03T11:39:54.692Z,13756.00
2018-09-03T11:40:54.679Z,15860.00
2018-09-03T11:41:54.528Z,17664.00
2018-09-03T11:42:54.426Z,18624.00
2018-09-03T11:43:54.333Z,23808.00
2018-09-03T11:44:54.247Z,24128.00
2018-09-03T11:45:54.160Z,23040.00
2018-09-03T11:46:54.081Z,20864.00
2018-09-03T11:47:53.977Z,22208.00
2018-09-03T11:48:53.892Z,23648.00
2018-09-03T11:49:53.799Z,21824.00
2018-09-03T11:50:53.711Z,22208.00
2018-09-03T11:51:53.636Z,19584.00
2018-09-03T11:52:53.534Z,17568.00
2018-09-03T11:53:53.453Z,15224.00
2018-09-03T11:54:53.365Z,15828.00
2018-09-03T11:55:53.264Z,21696.00
2018-09-03T11:56:53.191Z,23200.00
2018-09-03T11:57:53.088Z,25248.00
2018-09-03T11:58:52.998Z,20800.00
2018-09-03T11:59:52.913Z,26976.00
2018-09-03T12:00:52.821Z,28608.00
2018-09-03T12:01:52.752Z,25440.00
2018-09-03T12:02:52.643Z,21120.00
2018-09-03T12:03:52.557Z,18112.00
2018-09-03T12:04:52.465Z,17632.00
2018-09-03T12:05:52.378Z,15200.00
2018-09-03T12:06:52.305Z,15044.00
2018-09-03T12:07:52.199Z,15840.00
2018-09-03T12:08:52.113Z,15600.00
2018-09-03T12:09:52.023Z,17760.00
2018-09-03T12:10:51.937Z,20640.00
2018-09-03T12:11:51.865Z,24064.00
2018-09-03T12:12:51.763Z,36288.00
2018-09-03T12:13:51.675Z,48896.00
2018-09-03T12:14:51.581Z,45344.00
2018-09-03T12:15:51.494Z,55296.00
2018-09-03T12:16:51.424Z,68480.00
2018-09-03T12:17:51.314Z,52672.00
2018-09-03T12:18:51.227Z,64480.00
2018-09-03T12:19:51.144Z,31648.00
2018-09-03T12:20:51.081Z,30368.00
2018-09-03T12:21:50.984Z,21216.00
2018-09-03T12:22:50.878Z,19552.00
2018-09-03T12:23:50.791Z,17048.00
2018-09-03T12:24:50.703Z,16680.00
2018-09-03T12:25:50.617Z,23680.00